createdAt,value
2022-08-07T00:04:34.265Z,12.4
2022-08-07T00:14:35.140Z,12.4
2022-08-07T00:24:36.039Z,12.6
2022-08-07T00:34:36.390Z,12.6
2022-08-07T00:44:38.199Z,12.4
2022-08-07T01:04:43.053Z,11.9
2022-08-07T01:14:38.372Z,11.6
2022-08-07T01:24:38.680Z,11.6
2022-08-07T01:34:39.589Z,11.6
2022-08-07T01:44:40.004Z,11.6
2022-08-07T01:54:41.078Z,11.5
2022-08-07T02:04:52.756Z,11.4
2022-08-07T02:14:41.782Z,11.3
2022-08-07T02:24:44.575Z,11.1
2022-08-07T02:34:48.655Z,11
2022-08-07T02:44:48.116Z,10.9
2022-08-07T02:54:44.191Z,10.8
2022-08-07T03:04:44.888Z,10.7
2022-08-07T03:14:48.382Z,10.7
2022-08-07T03:24:46.566Z,10.7
2022-08-07T03:34:47.070Z,10.6
2022-08-07T03:44:53.287Z,10.5
2022-08-07T04:04:48.504Z,10.3
2022-08-07T04:14:49.368Z,10.3
2022-08-07T04:24:50.081Z,10.4
2022-08-07T04:34:50.291Z,10.4
2022-08-07T04:44:54.307Z,10.4
2022-08-07T04:54:51.788Z,10.6
2022-08-07T05:14:58.956Z,11.4
2022-08-07T05:24:53.670Z,12
2022-08-07T05:34:54.233Z,12.4
2022-08-07T05:45:04.593Z,12.9
2022-08-07T06:04:56.263Z,13.6
2022-08-07T06:14:58.674Z,14
2022-08-07T06:24:57.801Z,14.3
2022-08-07T06:34:57.268Z,14.7
2022-08-07T06:44:57.540Z,15
2022-08-07T06:55:30.598Z,15.4
2022-08-07T07:04:58.104Z,16
2022-08-07T07:14:58.681Z,16.8
2022-08-07T07:25:02.694Z,17.5
2022-08-07T07:35:00.102Z,17.8
2022-08-07T07:45:00.962Z,17.9
2022-08-07T07:55:01.876Z,18.5
2022-08-07T08:05:02.260Z,19
2022-08-07T08:15:06.717Z,19.3
2022-08-07T08:25:04.889Z,19.9
2022-08-07T08:35:04.271Z,19.9
2022-08-07T09:05:05.460Z,21
2022-08-07T09:25:12.225Z,21.7
2022-08-07T09:47:26.750Z,21.8
2022-08-07T09:55:17.171Z,22
2022-08-07T10:05:12.251Z,22.2
2022-08-07T10:15:15.271Z,22.5
2022-08-07T10:25:11.074Z,22.7
2022-08-07T10:35:12.376Z,22.5
2022-08-07T10:45:12.863Z,22.6
2022-08-07T10:55:21.103Z,23.2
2022-08-07T11:05:14.634Z,23.5
2022-08-07T11:15:17.571Z,23.3
2022-08-07T11:25:16.147Z,23.8
2022-08-07T11:35:16.583Z,24.1
2022-08-07T11:45:20.406Z,24.3
2022-08-07T11:55:19.209Z,24.6
2022-08-07T12:05:28.383Z,24.8
2022-08-07T12:15:35.556Z,24.8
2022-08-07T12:26:00.736Z,24.7
2022-08-07T12:35:20.627Z,25
2022-08-07T12:45:20.861Z,24.3
2022-08-07T12:55:21.495Z,24.5
2022-08-07T13:06:02.341Z,24.9
2022-08-07T13:15:23.363Z,25.1
2022-08-07T13:25:29.132Z,25.5
2022-08-07T13:35:25.189Z,25.8
2022-08-07T13:46:07.758Z,25.1
2022-08-07T13:55:34.103Z,24.6
2022-08-07T13:55:54.193Z,24.7
2022-08-07T14:05:38.118Z,24.6
2022-08-07T14:15:38.022Z,25.2
2022-08-07T14:25:39.211Z,25
2022-08-07T14:35:43.574Z,24.7
2022-08-07T14:45:46.085Z,24.8
2022-08-07T15:15:41.034Z,25
2022-08-07T15:36:02.727Z,24.6
2022-08-07T15:45:55.339Z,24.5
2022-08-07T15:55:53.118Z,24.4
2022-08-07T16:05:44.531Z,24.4
2022-08-07T16:15:55.848Z,24.2
2022-08-07T16:25:52.785Z,24.5
2022-08-07T16:35:50.798Z,24.4
2022-08-07T16:55:48.788Z,24.3
2022-08-07T17:15:51.738Z,24
2022-08-07T17:25:52.379Z,24.2
2022-08-07T17:35:55.408Z,23.8
2022-08-07T17:45:51.997Z,23.5
2022-08-07T17:55:55.688Z,23.2
2022-08-07T18:06:01.216Z,23
2022-08-07T18:15:54.133Z,22.9
2022-08-07T18:26:01.163Z,22.9
2022-08-07T18:35:55.862Z,22.6
2022-08-07T18:46:21.761Z,22.3
2022-08-07T18:55:57.518Z,21.9
2022-08-07T19:06:02.951Z,21.5
2022-08-07T19:16:04.197Z,21.1
2022-08-07T19:26:22.284Z,20.7
2022-08-07T19:35:59.304Z,20.4
2022-08-07T19:46:06.345Z,20.1
2022-08-07T19:56:01.070Z,19.8
2022-08-07T20:06:02.458Z,19.5
2022-08-07T20:16:02.704Z,19.3
2022-08-07T20:26:03.615Z,19.1
2022-08-07T20:36:03.916Z,18.9
2022-08-07T20:46:25.090Z,18.8
2022-08-07T20:56:05.406Z,18.6
2022-08-07T21:06:12.525Z,18.5
2022-08-07T21:26:08.053Z,18
2022-08-07T21:36:11.746Z,17.8
2022-08-07T21:46:24.970Z,17.7
2022-08-07T21:56:16.652Z,17.6
2022-08-07T22:06:28.937Z,17.4
2022-08-07T22:16:35.483Z,17.2
2022-08-07T22:26:11.589Z,17
2022-08-07T22:36:12.569Z,16.9
2022-08-07T22:46:41.095Z,16.8
2022-08-07T22:56:13.487Z,16.7
2022-08-07T23:16:39.277Z,16.7
2022-08-07T23:26:15.184Z,16.5
2022-08-07T23:36:17.201Z,16.3
2022-08-07T23:46:20.005Z,16.2
2022-08-07T23:56:20.934Z,16
